Time;durP1;ratioP1;P1;durP2;ratioP2;P2;SDS_P1;SDS_P2;PMS_P1;PMS_P2;Temp;Humidity;BMP_temperature;BMP_pressure;BME280_temperature;BME280_humidity;BME280_pressure;Samples;Min_cycle;Max_cycle;Signal;HPM_P1;HPM_P2
2022/04/13 00:02:18;;;;;;;8.70;4.70;;;;;;;;;;5025851;28;20478;-86
2022/04/13 00:04:57;;;;;;;5.43;4.00;;;;;;;;;;5022280;28;20518;-87
2022/04/13 00:07:29;;;;;;;6.70;4.33;;;;;;;;;;5023715;28;20457;-87
2022/04/13 00:09:58;;;;;;;11.97;4.93;;;;;;;;;;5005501;28;20431;-87
2022/04/13 00:12:32;;;;;;;17.73;6.70;;;;;;;;;;5008413;28;20411;-87
2022/04/13 00:14:58;;;;;;;18.47;9.13;;;;;;;;;;5008217;28;20458;-87
2022/04/13 00:17:25;;;;;;;14.30;8.00;;;;;;;;;;5025534;28;20461;-87
2022/04/13 00:19:51;;;;;;;15.57;7.93;;;;;;;;;;5024775;28;20412;-87
2022/04/13 00:22:19;;;;;;;14.40;6.57;;;;;;;;;;5006662;28;20419;-87
2022/04/13 00:24:45;;;;;;;9.43;5.50;;;;;;;;;;5025455;28;20485;-88
2022/04/13 00:27:11;;;;;;;7.87;5.70;;;;;;;;;;5008814;28;20422;-88
2022/04/13 00:29:40;;;;;;;7.97;4.57;;;;;;;;;;5008697;28;20498;-87
2022/04/13 00:32:07;;;;;;;11.60;4.90;;;;;;;;;;5024597;28;20403;-88
2022/04/13 00:34:36;;;;;;;7.90;3.90;;;;;;;;;;5024604;28;20457;-87
2022/04/13 00:37:02;;;;;;;9.33;4.87;;;;;;;;;;5024979;28;20927;-87
2022/04/13 00:39:31;;;;;;;8.53;4.30;;;;;;;;;;5007334;28;20407;-87
2022/04/13 00:42:03;;;;;;;9.10;5.13;;;;;;;;;;5023987;28;20437;-87
2022/04/13 00:44:32;;;;;;;8.13;4.70;;;;;;;;;;5024244;28;20497;-88
2022/04/13 00:47:10;;;;;;;6.40;4.23;;;;;;;;;;5007170;28;20555;-84
2022/04/13 00:49:39;;;;;;;6.80;4.40;;;;;;;;;;5035387;28;20829;-87
2022/04/13 00:52:06;;;;;;;9.73;4.10;;;;;;;;;;5006772;28;20415;-87
2022/04/13 00:54:33;;;;;;;6.60;4.27;;;;;;;;;;5006814;28;20488;-86
2022/04/13 00:57:08;;;;;;;19.97;6.40;;;;;;;;;;5007698;28;20407;-87
2022/04/13 00:59:38;;;;;;;12.10;5.97;;;;;;;;;;5007716;28;20415;-88
2022/04/13 01:02:06;;;;;;;9.37;5.33;;;;;;;;;;5007518;28;20395;-87
2022/04/13 01:04:34;;;;;;;11.83;4.90;;;;;;;;;;5024218;28;20463;-87
2022/04/13 01:07:01;;;;;;;9.37;4.60;;;;;;;;;;5022967;28;20403;-87
2022/04/13 01:09:27;;;;;;;11.73;4.73;;;;;;;;;;5006585;28;20841;-87
2022/04/13 01:11:54;;;;;;;8.30;5.13;;;;;;;;;;5024400;28;20407;-87
2022/04/13 01:14:26;;;;;;;14.70;5.63;;;;;;;;;;5025318;28;20432;-87
2022/04/13 01:16:52;;;;;;;8.30;4.53;;;;;;;;;;5024100;28;20467;-87
2022/04/13 01:19:25;;;;;;;12.80;5.20;;;;;;;;;;5025280;28;20404;-87
2022/04/13 01:21:59;;;;;;;10.63;5.73;;;;;;;;;;5006949;28;20404;-86
2022/04/13 01:24:29;;;;;;;11.67;4.60;;;;;;;;;;5023559;28;20459;-87
2022/04/13 01:26:59;;;;;;;8.00;5.37;;;;;;;;;;5032262;28;20485;-87
2022/04/13 01:29:27;;;;;;;7.47;4.93;;;;;;;;;;5043407;28;20413;-87
2022/04/13 01:31:54;;;;;;;8.00;5.50;;;;;;;;;;5043529;28;20398;-86
2022/04/13 01:34:21;;;;;;;9.17;4.90;;;;;;;;;;5043741;28;20423;-88
2022/04/13 01:36:49;;;;;;;14.00;5.43;;;;;;;;;;5041481;28;20414;-88
2022/04/13 01:39:16;;;;;;;9.43;4.90;;;;;;;;;;5044127;28;20418;-88
2022/04/13 01:41:42;;;;;;;7.50;4.97;;;;;;;;;;5044052;28;20482;-88
2022/04/13 01:44:08;;;;;;;8.37;5.17;;;;;;;;;;5043926;28;20466;-88
2022/04/13 01:49:26;;;;;;;7.13;5.33;;;;;;;;;;5037426;28;20406;-86
2022/04/13 01:51:52;;;;;;;8.33;5.17;;;;;;;;;;5035522;28;20496;-88
2022/04/13 01:54:26;;;;;;;7.30;4.63;;;;;;;;;;5039273;28;20466;-88
2022/04/13 01:57:01;;;;;;;7.20;4.60;;;;;;;;;;5040633;28;20820;-88
2022/04/13 01:59:27;;;;;;;7.90;4.60;;;;;;;;;;5040857;28;20409;-88
2022/04/13 02:02:02;;;;;;;9.47;4.97;;;;;;;;;;5041233;28;20430;-89
2022/04/13 02:04:28;;;;;;;7.30;5.23;;;;;;;;;;5024350;28;20472;-88
2022/04/13 02:07:03;;;;;;;8.73;4.67;;;;;;;;;;5042405;28;20413;-89
2022/04/13 02:09:33;;;;;;;8.77;4.70;;;;;;;;;;5042642;28;20386;-89
2022/04/13 02:12:05;;;;;;;7.37;4.43;;;;;;;;;;5042760;28;20750;-88
2022/04/13 02:14:35;;;;;;;6.10;4.10;;;;;;;;;;5044246;28;20446;-88
2022/04/13 02:17:06;;;;;;;7.00;4.53;;;;;;;;;;5028268;28;20418;-88
2022/04/13 02:19:46;;;;;;;9.53;4.93;;;;;;;;;;5025687;28;20496;-88
2022/04/13 02:22:14;;;;;;;7.80;4.80;;;;;;;;;;5042837;28;20383;-88
2022/04/13 02:24:45;;;;;;;9.80;5.33;;;;;;;;;;5043129;28;20461;-89
2022/04/13 02:27:13;;;;;;;10.03;5.53;;;;;;;;;;5042876;28;20792;-89
2022/04/13 02:29:47;;;;;;;10.33;5.57;;;;;;;;;;5042502;28;20816;-88
2022/04/13 02:32:16;;;;;;;12.23;5.43;;;;;;;;;;5041898;28;20961;-88
2022/04/13 02:34:48;;;;;;;7.20;4.40;;;;;;;;;;5025364;28;20418;-89
2022/04/13 02:37:26;;;;;;;6.67;3.90;;;;;;;;;;5042902;28;20411;-88
2022/04/13 02:39:52;;;;;;;10.57;5.53;;;;;;;;;;5043877;28;20379;-88
2022/04/13 02:42:40;;;;;;;9.50;4.90;;;;;;;;;;5042797;28;20927;-88
2022/04/13 02:45:09;;;;;;;7.83;5.37;;;;;;;;;;5043171;28;20985;-89
2022/04/13 02:47:38;;;;;;;10.27;5.30;;;;;;;;;;5042505;28;20409;-88
2022/04/13 02:50:20;;;;;;;6.47;4.97;;;;;;;;;;5042598;28;20405;-89
2022/04/13 02:52:54;;;;;;;9.97;5.27;;;;;;;;;;5021950;28;20466;-87
2022/04/13 02:55:23;;;;;;;9.13;5.70;;;;;;;;;;5041711;28;20988;-87
2022/04/13 02:57:55;;;;;;;5.00;4.30;;;;;;;;;;5042248;28;20843;-87
2022/04/13 03:00:29;;;;;;;10.83;4.37;;;;;;;;;;5042986;28;20413;-87
2022/04/13 03:03:02;;;;;;;8.40;5.23;;;;;;;;;;5039132;28;20450;-87
2022/04/13 03:05:37;;;;;;;8.93;5.30;;;;;;;;;;5023920;28;20403;-88
2022/04/13 03:08:19;;;;;;;;;;;;;;;;;;;;;
2022/04/13 03:10:48;;;;;;;6.80;5.10;;;;;;;;;;5024267;28;20455;-87
2022/04/13 03:13:30;;;;;;;6.57;5.13;;;;;;;;;;5025011;28;20430;-88
2022/04/13 03:16:00;;;;;;;7.87;4.70;;;;;;;;;;5022880;28;20403;-87
2022/04/13 03:18:26;;;;;;;9.37;4.83;;;;;;;;;;5023590;28;20822;-88
2022/04/13 03:20:57;;;;;;;7.20;4.80;;;;;;;;;;5020896;28;20430;-87
2022/04/13 03:23:23;;;;;;;7.23;4.80;;;;;;;;;;5023119;28;21044;-87
2022/04/13 03:25:49;;;;;;;24.10;5.23;;;;;;;;;;5022266;28;20406;-87
2022/04/13 03:28:27;;;;;;;6.20;4.70;;;;;;;;;;5022466;28;20457;-88
2022/04/13 03:30:58;;;;;;;6.70;4.60;;;;;;;;;;5022039;28;20394;-88
2022/04/13 03:33:33;;;;;;;6.60;5.90;;;;;;;;;;5022353;28;20435;-88
2022/04/13 03:35:59;;;;;;;9.17;6.10;;;;;;;;;;5021003;28;20407;-89
2022/04/13 03:38:36;;;;;;;7.23;5.03;;;;;;;;;;5022964;28;20411;-89
2022/04/13 03:41:08;;;;;;;7.63;5.17;;;;;;;;;;5050671;28;20444;-88
2022/04/13 03:43:36;;;;;;;9.03;5.33;;;;;;;;;;5061853;28;20477;-89
2022/04/13 03:46:03;;;;;;;6.90;5.30;;;;;;;;;;5061100;28;20413;-89
2022/04/13 03:48:31;;;;;;;9.40;6.07;;;;;;;;;;5061678;28;20501;-88
2022/04/13 03:51:00;;;;;;;7.23;4.80;;;;;;;;;;5043321;28;20414;-87
2022/04/13 03:53:31;;;;;;;11.50;4.97;;;;;;;;;;5022001;28;20461;-86
2022/04/13 03:56:05;;;;;;;7.67;5.17;;;;;;;;;;5043059;28;20444;-88
2022/04/13 03:58:34;;;;;;;7.27;5.43;;;;;;;;;;5042407;28;20877;-86
2022/04/13 04:01:00;;;;;;;10.10;5.37;;;;;;;;;;5042216;28;20417;-88
2022/04/13 04:03:28;;;;;;;11.27;5.47;;;;;;;;;;5042242;28;20470;-87
2022/04/13 04:06:06;;;;;;;7.10;5.47;;;;;;;;;;5041441;28;20409;-87
2022/04/13 04:08:32;;;;;;;8.33;5.60;;;;;;;;;;5042938;28;20883;-88
2022/04/13 04:11:07;;;;;;;9.30;6.90;;;;;;;;;;5026238;28;20407;-88
2022/04/13 04:13:36;;;;;;;10.27;5.03;;;;;;;;;;5042910;28;20442;-87
2022/04/13 04:16:19;;;;;;;7.13;5.00;;;;;;;;;;5024437;28;20466;-88
2022/04/13 04:18:58;;;;;;;6.60;5.40;;;;;;;;;;5042314;28;20397;-87
2022/04/13 04:21:45;;;;;;;14.77;5.90;;;;;;;;;;5041212;28;20782;-87
2022/04/13 04:24:10;;;;;;;10.53;6.70;;;;;;;;;;5040944;28;20458;-87
2022/04/13 04:26:43;;;;;;;7.60;5.50;;;;;;;;;;5040643;28;20772;-87
2022/04/13 04:29:12;;;;;;;8.93;6.50;;;;;;;;;;5039961;28;20412;-87
2022/04/13 04:31:50;;;;;;;5.13;4.50;;;;;;;;;;5040590;28;20402;-87
2022/04/13 04:34:17;;;;;;;7.40;6.13;;;;;;;;;;5041690;28;20441;-87
2022/04/13 04:36:49;;;;;;;7.23;5.30;;;;;;;;;;5040453;28;20406;-86
2022/04/13 04:39:33;;;;;;;9.10;5.03;;;;;;;;;;5022863;28;20422;-87
2022/04/13 04:42:04;;;;;;;13.03;6.87;;;;;;;;;;5035314;28;20407;-84
2022/04/13 04:44:32;;;;;;;17.07;7.40;;;;;;;;;;5058185;28;20505;-87
2022/04/13 04:46:59;;;;;;;14.30;7.60;;;;;;;;;;5045934;28;20926;-88
2022/04/13 04:49:29;;;;;;;9.70;6.33;;;;;;;;;;5045498;28;20398;-86
2022/04/13 04:52:18;;;;;;;15.63;6.83;;;;;;;;;;5029226;28;20548;-87
2022/04/13 04:54:47;;;;;;;9.17;6.23;;;;;;;;;;5022406;28;20431;-87
2022/04/13 04:57:40;;;;;;;9.07;5.30;;;;;;;;;;5032248;28;20450;-87
2022/04/13 05:00:12;;;;;;;8.80;5.30;;;;;;;;;;5001442;28;20423;-87
2022/04/13 05:05:52;;;;;;;11.00;4.87;;;;;;;;;;5023979;28;20422;-87
2022/04/13 05:08:21;;;;;;;8.87;5.00;;;;;;;;;;5024221;28;20446;-86
2022/04/13 05:11:10;;;;;;;16.90;8.43;;;;;;;;;;5021209;28;20450;-85
2022/04/13 05:13:39;;;;;;;8.87;4.67;;;;;;;;;;5019326;28;20434;-88
2022/04/13 05:16:17;;;;;;;11.73;5.67;;;;;;;;;;5029203;28;20430;-88
2022/04/13 05:19:07;;;;;;;9.80;5.90;;;;;;;;;;5005321;28;20461;-87
2022/04/13 05:21:56;;;;;;;6.83;4.80;;;;;;;;;;5023560;28;20819;-88
2022/04/13 05:24:37;;;;;;;11.93;5.80;;;;;;;;;;5015918;28;20463;-88
2022/04/13 05:27:09;;;;;;;9.10;5.73;;;;;;;;;;5025590;28;20395;-88
2022/04/13 05:30:03;;;;;;;8.83;4.70;;;;;;;;;;5018939;28;20411;-89
2022/04/13 05:32:30;;;;;;;9.27;5.93;;;;;;;;;;5024128;28;20908;-88
2022/04/13 05:35:35;;;;;;;9.47;5.43;;;;;;;;;;5027379;28;20439;-87
2022/04/13 05:38:07;;;;;;;11.50;5.33;;;;;;;;;;5027788;28;20411;-88
2022/04/13 05:40:40;;;;;;;12.20;6.70;;;;;;;;;;5037443;28;20430;-84
2022/04/13 05:43:09;;;;;;;12.27;6.07;;;;;;;;;;5039197;28;20487;-86
2022/04/13 05:45:45;;;;;;;9.70;5.43;;;;;;;;;;5034849;28;20416;-88
2022/04/13 05:48:15;;;;;;;10.33;6.50;;;;;;;;;;5026342;28;20403;-88
2022/04/13 05:50:58;;;;;;;12.00;5.73;;;;;;;;;;5026471;28;20411;-89
2022/04/13 05:53:34;;;;;;;11.00;6.43;;;;;;;;;;5026615;28;20513;-87
2022/04/13 05:56:19;;;;;;;13.93;6.23;;;;;;;;;;5024413;28;20423;-87
2022/04/13 05:59:11;;;;;;;13.27;7.07;;;;;;;;;;5025607;28;20468;-88
2022/04/13 06:01:48;;;;;;;;;;;;;;;;;;;;;
2022/04/13 06:04:16;;;;;;;9.27;5.80;;;;;;;;;;5026226;28;20518;-88
2022/04/13 06:06:51;;;;;;;15.20;6.00;;;;;;;;;;5023397;28;20504;-88
2022/04/13 06:09:22;;;;;;;11.60;5.73;;;;;;;;;;5023840;28;20422;-88
2022/04/13 06:12:06;;;;;;;9.73;5.53;;;;;;;;;;5024534;28;20458;-87
2022/04/13 06:14:49;;;;;;;;;;;;;;;;;;;;;
2022/04/13 06:17:21;;;;;;;9.13;5.60;;;;;;;;;;5024730;28;20470;-87
2022/04/13 06:20:06;;;;;;;15.07;7.23;;;;;;;;;;5023011;28;20494;-89
2022/04/13 06:22:43;;;;;;;16.20;8.80;;;;;;;;;;5024387;28;20395;-88
2022/04/13 06:25:13;;;;;;;12.10;6.50;;;;;;;;;;5022652;28;20505;-87
2022/04/13 06:28:04;;;;;;;17.40;7.00;;;;;;;;;;5021942;28;20416;-88
2022/04/13 06:30:49;;;;;;;20.40;6.87;;;;;;;;;;5021067;28;20456;-88
2022/04/13 06:33:28;;;;;;;14.90;6.40;;;;;;;;;;5021121;28;20442;-89
2022/04/13 06:36:11;;;;;;;11.20;5.73;;;;;;;;;;5022294;28;20427;-88
2022/04/13 06:38:45;;;;;;;13.53;7.30;;;;;;;;;;5024051;28;20436;-87
2022/04/13 06:41:26;;;;;;;9.10;6.27;;;;;;;;;;5022573;28;20427;-88
2022/04/13 06:44:27;;;;;;;9.90;6.23;;;;;;;;;;5063607;22;20484;-88
2022/04/13 06:50:31;;;;;;;9.97;6.53;;;;;;;;;;5009648;28;20405;-88
2022/04/13 06:53:00;;;;;;;10.07;5.97;;;;;;;;;;5081815;28;20431;-88
2022/04/13 06:55:40;;;;;;;11.03;5.73;;;;;;;;;;5070478;28;20774;-88
2022/04/13 06:58:20;;;;;;;9.20;5.43;;;;;;;;;;5061038;28;20585;-88
2022/04/13 07:00:52;;;;;;;13.90;6.00;;;;;;;;;;5076602;28;20401;-87
2022/04/13 07:03:25;;;;;;;8.87;5.83;;;;;;;;;;5078583;28;20437;-87
2022/04/13 07:12:03;;;;;;;6.43;4.77;;;;;;;;;;4970272;28;20409;-87
2022/04/13 07:14:59;;;;;;;6.20;4.70;;;;;;;;;;5061383;28;20433;-87
2022/04/13 07:17:29;;;;;;;11.00;4.50;;;;;;;;;;5065579;28;20455;-87
2022/04/13 07:28:30;;;;;;;7.97;4.93;;;;;;;;;;5059570;28;20481;-87
2022/04/13 07:31:21;;;;;;;7.28;4.20;;;;;;;;;;5050669;28;20484;-86
2022/04/13 07:34:32;;;;;;;;;;;;;;;;;;;;;
2022/04/13 07:37:28;;;;;;;8.97;4.27;;;;;;;;;;5051621;28;20973;-87
2022/04/13 07:40:00;;;;;;;10.60;4.37;;;;;;;;;;5042402;28;20434;-87
2022/04/13 07:42:29;;;;;;;7.93;4.37;;;;;;;;;;5066256;28;20448;-87
2022/04/13 07:44:58;;;;;;;8.50;4.53;;;;;;;;;;5058490;28;20549;-87
2022/04/13 07:59:09;;;;;;;10.63;3.80;;;;;;;;;;5187130;22;20292;-87
2022/04/13 08:10:26;;;;;;;8.33;5.03;;;;;;;;;;3732559;22;20595;-87
2022/04/13 08:13:00;;;;;;;5.40;3.50;;;;;;;;;;5041001;28;20506;-88
2022/04/13 08:22:25;;;;;;;5.33;3.20;;;;;;;;;;4969307;29;20400;-87
2022/04/13 08:28:12;;;;;;;7.43;3.67;;;;;;;;;;4951803;29;20507;-89
2022/04/13 08:30:50;;;;;;;8.07;3.90;;;;;;;;;;5018462;28;20927;-87
2022/04/13 08:33:51;;;;;;;5.20;3.70;;;;;;;;;;5056665;28;20199;-87
2022/04/13 08:36:39;;;;;;;6.00;3.40;;;;;;;;;;5054431;28;20413;-85
2022/04/13 08:45:42;;;;;;;5.73;2.80;;;;;;;;;;5062273;28;20459;-86
2022/04/13 08:57:58;;;;;;;5.07;2.87;;;;;;;;;;5099994;22;20531;-87
2022/04/13 09:00:55;;;;;;;;;;;;;;;;;;;;;
2022/04/13 09:08:38;;;;;;;5.70;3.30;;;;;;;;;;1212454;26;20515;-87
2022/04/13 09:14:45;;;;;;;7.70;3.23;;;;;;;;;;4999991;28;20582;-87
2022/04/13 09:21:18;;;;;;;;;;;;;;;;;;;;;
2022/04/13 09:27:24;;;;;;;8.47;3.27;;;;;;;;;;4959993;28;20409;-87
2022/04/13 09:36:55;;;;;;;;;;;;;;;;;;;;;
2022/04/13 09:43:21;;;;;;;;;;;;;;;;;;;;;
2022/04/13 09:55:32;;;;;;;8.87;4.07;;;;;;;;;;4898334;29;20687;-87
2022/04/13 10:11:13;;;;;;;6.60;4.30;;;;;;;;;;4986448;28;20423;-88
2022/04/13 10:16:15;;;;;;;8.83;3.80;;;;;;;;;;5076443;22;20493;-88
2022/04/13 10:18:57;;;;;;;13.07;4.30;;;;;;;;;;5072475;28;20427;-87
2022/04/13 10:21:37;;;;;;;7.10;3.70;;;;;;;;;;5071187;28;20419;-87
2022/04/13 10:24:06;;;;;;;4.82;3.78;;;;;;;;;;5042759;28;20817;-87
2022/04/13 10:26:53;;;;;;;8.03;4.30;;;;;;;;;;5042458;28;20167;-87
2022/04/13 10:39:40;;;;;;;14.47;4.30;;;;;;;;;;5060720;28;20382;-86
2022/04/13 10:52:15;;;;;;;12.53;4.40;;;;;;;;;;5060762;28;20770;-88
2022/04/13 10:54:56;;;;;;;9.20;5.50;;;;;;;;;;5049200;28;20821;-86
2022/04/13 10:57:29;;;;;;;7.85;4.63;;;;;;;;;;5032432;28;20419;-87
2022/04/13 10:59:57;;;;;;;7.40;4.93;;;;;;;;;;5036962;28;20270;-88
2022/04/13 11:02:29;;;;;;;7.80;5.97;;;;;;;;;;5041701;28;20429;-88
2022/04/13 11:04:56;;;;;;;14.90;6.07;;;;;;;;;;5038388;28;20457;-85
2022/04/13 11:07:23;;;;;;;11.13;5.50;;;;;;;;;;5046193;28;20433;-87
2022/04/13 11:09:55;;;;;;;11.00;5.67;;;;;;;;;;5056818;28;20409;-87
2022/04/13 11:12:53;;;;;;;7.47;5.80;;;;;;;;;;5053392;28;20434;-85
2022/04/13 11:15:37;;;;;;;10.53;6.27;;;;;;;;;;5038737;28;20507;-87
2022/04/13 11:18:17;;;;;;;10.17;6.90;;;;;;;;;;5046134;28;20402;-87
2022/04/13 11:21:04;;;;;;;10.33;6.73;;;;;;;;;;5061238;28;20405;-87
2022/04/13 11:23:51;;;;;;;6.23;5.63;;;;;;;;;;5042754;28;20431;-86
2022/04/13 11:26:36;;;;;;;10.53;6.83;;;;;;;;;;5042330;28;20404;-87
2022/04/13 11:29:38;;;;;;;9.13;6.20;;;;;;;;;;5036898;28;20421;-87
2022/04/13 11:32:10;;;;;;;8.17;6.90;;;;;;;;;;4947895;29;20775;-87
2022/04/13 11:34:36;;;;;;;9.63;6.70;;;;;;;;;;5025534;28;20441;-87
2022/04/13 11:37:18;;;;;;;12.93;7.20;;;;;;;;;;5046668;28;20433;-88
2022/04/13 11:40:23;;;;;;;;;;;;;;;;;;;;;
2022/04/13 11:46:14;;;;;;;;;;;;;;;;;;;;;
2022/04/13 11:55:46;;;;;;;16.07;7.80;;;;;;;;;;4869806;29;20438;-86
2022/04/13 12:01:33;;;;;;;6.63;6.03;;;;;;;;;;5051560;28;20459;-88
2022/04/13 12:04:26;;;;;;;7.00;6.20;;;;;;;;;;5056957;28;20464;-86
2022/04/13 12:07:24;;;;;;;10.00;6.23;;;;;;;;;;5045892;28;20409;-85
2022/04/13 12:13:37;;;;;;;;;;;;;;;;;;;;;
2022/04/13 12:16:29;;;;;;;12.70;7.50;;;;;;;;;;5059020;28;20549;-87
2022/04/13 12:18:56;;;;;;;8.32;7.25;;;;;;;;;;5022643;28;20925;-87
2022/04/13 12:21:44;;;;;;;8.93;7.33;;;;;;;;;;5047415;28;20179;-87
2022/04/13 12:28:08;;;;;;;;;;;;;;;;;;;;;
2022/04/13 12:30:42;;;;;;;14.53;8.63;;;;;;;;;;5057496;28;20409;-87
2022/04/13 12:36:20;;;;;;;13.23;8.00;;;;;;;;;;5065348;22;20473;-87
2022/04/13 12:39:11;;;;;;;11.43;7.90;;;;;;;;;;5041616;28;20424;-89
2022/04/13 12:41:55;;;;;;;13.30;8.30;;;;;;;;;;4993156;28;20439;-85
2022/04/13 12:44:58;;;;;;;9.90;7.90;;;;;;;;;;5058070;28;20464;-89
2022/04/13 12:47:51;;;;;;;16.63;9.60;;;;;;;;;;5019375;28;20444;-88
2022/04/13 12:50:32;;;;;;;;;;;;;;;;;;;;;
2022/04/13 12:53:17;;;;;;;10.40;7.90;;;;;;;;;;5063008;28;20531;-87
2022/04/13 12:56:04;;;;;;;8.33;7.43;;;;;;;;;;5044681;28;20402;-88
2022/04/13 12:58:54;;;;;;;;;;;;;;;;;;;;;
2022/04/13 13:19:40;;;;;;;9.30;6.57;;;;;;;;;;3970487;22;20479;-87
2022/04/13 13:28:44;;;;;;;;;;;;;;;;;;;;;
2022/04/13 13:34:28;;;;;;;7.70;6.83;;;;;;;;;;4944094;28;20537;-87
2022/04/13 13:37:35;;;;;;;;;;;;;;;;;;;;;
2022/04/13 13:40:09;;;;;;;10.10;7.17;;;;;;;;;;4943188;28;20501;-87
2022/04/13 13:42:55;;;;;;;6.93;6.13;;;;;;;;;;5011277;28;20418;-88
2022/04/13 13:45:39;;;;;;;9.80;7.83;;;;;;;;;;5026424;28;20431;-86
2022/04/13 13:51:19;;;;;;;11.17;6.50;;;;;;;;;;5027085;28;20399;-88
2022/04/13 13:53:49;;;;;;;9.97;6.70;;;;;;;;;;5038462;28;20895;-89
2022/04/13 13:56:18;;;;;;;9.50;7.57;;;;;;;;;;5022031;28;20422;-89
2022/04/13 13:59:14;;;;;;;11.20;7.70;;;;;;;;;;5039723;28;20923;-88
2022/04/13 14:02:05;;;;;;;;;;;;;;;;;;;;;
2022/04/13 14:04:31;;;;;;;8.37;6.57;;;;;;;;;;5040535;28;20526;-89
2022/04/13 14:10:06;;;;;;;8.80;7.03;;;;;;;;;;4991886;28;20420;-90
2022/04/13 14:12:40;;;;;;;7.83;6.50;;;;;;;;;;5024920;28;20387;-90
2022/04/13 14:15:11;;;;;;;8.27;7.37;;;;;;;;;;5057250;28;20409;-88
2022/04/13 14:17:52;;;;;;;11.60;7.53;;;;;;;;;;5052668;28;20478;-89
2022/04/13 14:20:42;;;;;;;10.77;6.90;;;;;;;;;;5036292;28;20425;-89
2022/04/13 14:23:24;;;;;;;9.63;7.20;;;;;;;;;;5023476;28;20431;-88
2022/04/13 14:29:24;;;;;;;9.67;7.30;;;;;;;;;;5044312;28;20437;-87
2022/04/13 14:32:05;;;;;;;8.53;7.63;;;;;;;;;;4971426;28;20496;-88
2022/04/13 14:34:34;;;;;;;11.67;7.67;;;;;;;;;;4966691;28;20451;-89
2022/04/13 14:37:03;;;;;;;9.57;7.17;;;;;;;;;;5007666;28;20414;-89
2022/04/13 14:39:45;;;;;;;9.17;8.03;;;;;;;;;;5046127;28;20907;-89
2022/04/13 14:42:12;;;;;;;9.00;7.53;;;;;;;;;;5046148;28;20414;-90
2022/04/13 14:44:41;;;;;;;8.67;7.77;;;;;;;;;;5046793;28;20501;-88
2022/04/13 14:47:30;;;;;;;9.23;6.83;;;;;;;;;;5031074;28;20502;-88
2022/04/13 14:49:59;;;;;;;8.00;7.10;;;;;;;;;;5046318;28;20399;-88
2022/04/13 14:52:49;;;;;;;10.77;6.77;;;;;;;;;;5027355;28;20421;-88
2022/04/13 14:55:34;;;;;;;10.60;7.57;;;;;;;;;;5012689;28;20441;-89
2022/04/13 14:58:21;;;;;;;11.37;7.57;;;;;;;;;;5043013;28;20402;-88
2022/04/13 15:01:05;;;;;;;8.17;6.93;;;;;;;;;;5030610;28;20386;-88
2022/04/13 15:03:34;;;;;;;8.47;6.87;;;;;;;;;;5076891;22;20485;-87
2022/04/13 15:06:06;;;;;;;10.97;6.80;;;;;;;;;;5007964;28;20526;-89
2022/04/13 15:08:42;;;;;;;10.73;6.70;;;;;;;;;;5023126;28;20966;-88
2022/04/13 15:11:52;;;;;;;;;;;;;;;;;;;;;
2022/04/13 15:16:54;;;;;;;10.90;7.27;;;;;;;;;;5059350;22;20531;-88
2022/04/13 15:19:21;;;;;;;14.23;8.20;;;;;;;;;;5037495;28;20846;-88
2022/04/13 15:21:47;;;;;;;12.60;7.60;;;;;;;;;;5038886;28;20421;-89
2022/04/13 15:24:16;;;;;;;9.03;7.00;;;;;;;;;;5019831;28;20986;-89
2022/04/13 15:26:46;;;;;;;14.00;6.50;;;;;;;;;;5040144;28;20903;-89
2022/04/13 15:29:50;;;;;;;7.80;6.77;;;;;;;;;;5021051;28;20407;-88
2022/04/13 15:32:10;;;;;;;8.50;6.83;;;;;;;;;;5036812;28;20422;-88
2022/04/13 15:37:43;;;;;;;7.40;6.67;;;;;;;;;;5037416;28;20902;-89
2022/04/13 15:40:16;;;;;;;7.87;6.77;;;;;;;;;;5038409;28;20521;-89
2022/04/13 15:42:45;;;;;;;9.60;7.47;;;;;;;;;;5016663;28;20468;-88
2022/04/13 15:45:23;;;;;;;15.27;7.90;;;;;;;;;;5022895;28;20485;-88
2022/04/13 15:48:02;;;;;;;9.27;7.73;;;;;;;;;;5040537;28;20465;-88
2022/04/13 15:50:46;;;;;;;7.50;6.33;;;;;;;;;;5033711;28;20398;-88
2022/04/13 15:53:45;;;;;;;8.47;6.60;;;;;;;;;;5026821;28;20477;-88
2022/04/13 15:56:29;;;;;;;9.20;6.03;;;;;;;;;;4984877;28;20953;-88
2022/04/13 15:59:30;;;;;;;8.47;6.00;;;;;;;;;;5039192;28;20386;-88
2022/04/13 16:02:37;;;;;;;8.17;5.93;;;;;;;;;;5036423;28;20413;-88
2022/04/13 16:05:23;;;;;;;8.10;6.53;;;;;;;;;;5003167;28;20474;-87
2022/04/13 16:08:23;;;;;;;11.83;7.80;;;;;;;;;;5020333;28;20403;-88
2022/04/13 16:11:06;;;;;;;10.03;7.00;;;;;;;;;;5000858;28;20434;-87
2022/04/13 16:13:38;;;;;;;10.73;7.13;;;;;;;;;;5020001;28;20422;-88
2022/04/13 16:16:13;;;;;;;12.63;6.97;;;;;;;;;;5021934;28;20418;-87
2022/04/13 16:21:33;;;;;;;10.30;6.87;;;;;;;;;;5036003;28;20895;-89
2022/04/13 16:24:04;;;;;;;10.20;6.87;;;;;;;;;;5035491;28;20477;-88
2022/04/13 16:26:31;;;;;;;9.80;6.90;;;;;;;;;;5036184;28;20446;-88
2022/04/13 16:29:00;;;;;;;12.60;7.20;;;;;;;;;;5020207;28;20411;-88
2022/04/13 16:31:34;;;;;;;12.50;7.93;;;;;;;;;;5035926;28;20429;-88
2022/04/13 16:34:03;;;;;;;10.30;6.83;;;;;;;;;;5035234;28;20198;-87
2022/04/13 16:36:38;;;;;;;9.67;5.83;;;;;;;;;;5038038;28;20907;-87
2022/04/13 16:39:04;;;;;;;13.73;6.53;;;;;;;;;;5042329;28;20410;-88
2022/04/13 16:41:30;;;;;;;12.67;6.63;;;;;;;;;;5055036;28;20430;-86
2022/04/13 16:43:58;;;;;;;13.30;7.30;;;;;;;;;;5038599;28;20478;-90
2022/04/13 16:46:30;;;;;;;12.20;6.17;;;;;;;;;;5042237;28;20468;-87
2022/04/13 16:49:08;;;;;;;14.47;7.47;;;;;;;;;;5041426;28;20513;-87
2022/04/13 16:51:34;;;;;;;9.80;6.10;;;;;;;;;;5042085;28;20418;-89
2022/04/13 16:54:05;;;;;;;10.97;6.73;;;;;;;;;;5023944;28;20441;-87
2022/04/13 16:56:34;;;;;;;8.50;6.43;;;;;;;;;;5041055;28;20398;-87
2022/04/13 16:59:08;;;;;;;12.48;8.25;;;;;;;;;;5037914;28;20428;-87
2022/04/13 17:01:39;;;;;;;9.77;6.97;;;;;;;;;;5040965;28;20202;-87
2022/04/13 17:04:05;;;;;;;10.27;6.40;;;;;;;;;;5042067;28;20461;-89
2022/04/13 17:06:32;;;;;;;9.37;7.60;;;;;;;;;;5043307;28;20426;-88
2022/04/13 17:08:58;;;;;;;13.07;9.60;;;;;;;;;;5043710;28;20418;-88
2022/04/13 17:11:24;;;;;;;12.73;7.90;;;;;;;;;;5052629;28;20417;-87
2022/04/13 17:13:51;;;;;;;11.00;8.00;;;;;;;;;;5035547;28;20485;-86
2022/04/13 17:16:30;;;;;;;15.60;7.70;;;;;;;;;;5000633;28;1231721;-87
2022/04/13 17:18:59;;;;;;;10.33;7.30;;;;;;;;;;5032334;28;20158;-89
2022/04/13 17:21:32;;;;;;;12.60;7.90;;;;;;;;;;5024276;28;20511;-88
2022/04/13 17:24:11;;;;;;;;;;;;;;;;;;;;;
2022/04/13 17:26:46;;;;;;;13.40;8.10;;;;;;;;;;5038020;28;20493;-88
2022/04/13 17:29:30;;;;;;;10.27;7.37;;;;;;;;;;5042901;28;20460;-86
2022/04/13 17:32:02;;;;;;;13.13;8.23;;;;;;;;;;5026182;28;20406;-88
2022/04/13 17:34:49;;;;;;;19.23;9.03;;;;;;;;;;5026640;28;20431;-87
2022/04/13 17:37:16;;;;;;;13.77;7.83;;;;;;;;;;5026110;28;20423;-88
2022/04/13 17:40:05;;;;;;;12.70;7.20;;;;;;;;;;5024487;28;20899;-87
2022/04/13 17:42:38;;;;;;;11.85;8.30;;;;;;;;;;5025202;28;20913;-87
2022/04/13 17:45:05;;;;;;;12.70;6.67;;;;;;;;;;5026465;28;20196;-89
2022/04/13 17:47:51;;;;;;;12.73;8.23;;;;;;;;;;5044650;28;20458;-89
2022/04/13 17:50:20;;;;;;;9.80;7.40;;;;;;;;;;5040519;28;20399;-88
2022/04/13 17:52:46;;;;;;;11.80;8.27;;;;;;;;;;5043239;28;20457;-88
2022/04/13 17:55:17;;;;;;;13.23;8.20;;;;;;;;;;5038926;28;20414;-88
2022/04/13 17:57:43;;;;;;;16.20;7.33;;;;;;;;;;5044435;28;20403;-87
2022/04/13 18:00:16;;;;;;;13.30;8.20;;;;;;;;;;5042822;28;20490;-87
2022/04/13 18:05:58;;;;;;;13.80;7.80;;;;;;;;;;4960855;29;20496;-88
2022/04/13 18:08:53;;;;;;;57.27;8.93;;;;;;;;;;5010993;28;20414;-86
2022/04/13 18:11:47;;;;;;;14.17;8.40;;;;;;;;;;5024753;28;20414;-88
2022/04/13 18:14:34;;;;;;;12.90;7.60;;;;;;;;;;5025931;28;20430;-85
2022/04/13 18:17:15;;;;;;;17.53;8.10;;;;;;;;;;5031039;28;20450;-88
2022/04/13 18:20:04;;;;;;;17.15;8.23;;;;;;;;;;5041892;28;20433;-88
2022/04/13 18:22:41;;;;;;;15.47;9.80;;;;;;;;;;5023483;28;20183;-88
2022/04/13 18:25:36;;;;;;;12.03;7.30;;;;;;;;;;5043606;28;20446;-86
2022/04/13 18:28:07;;;;;;;13.30;8.60;;;;;;;;;;5026161;28;20402;-88
2022/04/13 18:37:10;;;;;;;11.77;7.63;;;;;;;;;;5047774;28;20398;-88
2022/04/13 18:40:07;;;;;;;11.60;7.00;;;;;;;;;;5033379;28;20401;-86
2022/04/13 18:42:47;;;;;;;12.67;7.97;;;;;;;;;;5022473;28;20415;-88
2022/04/13 18:45:21;;;;;;;16.23;8.73;;;;;;;;;;5022890;28;20461;-86
2022/04/13 18:47:56;;;;;;;11.73;8.00;;;;;;;;;;5033880;28;20386;-88
2022/04/13 18:50:32;;;;;;;16.47;9.37;;;;;;;;;;5055238;28;20440;-87
2022/04/13 18:52:58;;;;;;;14.63;9.17;;;;;;;;;;5038289;28;20414;-88
2022/04/13 18:55:25;;;;;;;14.27;8.73;;;;;;;;;;5057576;28;20407;-87
2022/04/13 18:58:00;;;;;;;12.17;7.40;;;;;;;;;;5058275;28;20418;-88
2022/04/13 19:01:05;;;;;;;13.17;8.00;;;;;;;;;;5040874;28;20434;-87
2022/04/13 19:03:34;;;;;;;14.47;8.53;;;;;;;;;;5040227;28;20510;-89
2022/04/13 19:06:03;;;;;;;13.57;8.47;;;;;;;;;;5051284;28;20950;-89
2022/04/13 19:08:35;;;;;;;16.80;10.50;;;;;;;;;;5051100;28;20444;-89
2022/04/13 19:14:17;;;;;;;10.63;7.80;;;;;;;;;;5047676;28;20844;-89
2022/04/13 19:16:48;;;;;;;12.37;7.40;;;;;;;;;;5030608;28;20430;-90
2022/04/13 19:19:14;;;;;;;12.50;8.90;;;;;;;;;;5047944;28;20426;-89
2022/04/13 19:21:43;;;;;;;10.80;7.73;;;;;;;;;;5049729;28;20410;-89
2022/04/13 19:24:12;;;;;;;12.47;7.33;;;;;;;;;;5048534;28;20592;-88
2022/04/13 19:29:24;;;;;;;14.90;9.03;;;;;;;;;;5047745;28;20391;-88
2022/04/13 19:31:59;;;;;;;16.53;7.87;;;;;;;;;;5047918;28;20466;-89
2022/04/13 19:34:25;;;;;;;11.33;7.97;;;;;;;;;;5045946;28;20433;-89
2022/04/13 19:37:27;;;;;;;11.33;7.33;;;;;;;;;;5045189;28;20422;-89